Time;durP1;ratioP1;P1;durP2;ratioP2;P2;SDS_P1;SDS_P2;PMS_P1;PMS_P2;Temp;Humidity;BMP_temperature;BMP_pressure;BME280_temperature;BME280_humidity;BME280_pressure;Samples;Min_cycle;Max_cycle;Signal;HPM_P1;HPM_P2
2022/06/05 00:00:21;;;;;;;4.67;4.30;;;;;;;;;;4948389;28;20458;-71
2022/06/05 00:02:49;;;;;;;5.30;5.03;;;;;;;;;;4949772;28;20447;-71
2022/06/05 00:05:20;;;;;;;6.20;5.63;;;;;;;;;;4947554;29;20514;-73
2022/06/05 00:07:48;;;;;;;5.47;5.20;;;;;;;;;;4946432;28;20454;-76
2022/06/05 00:10:18;;;;;;;9.67;4.90;;;;;;;;;;4947262;28;20851;-75
2022/06/05 00:12:44;;;;;;;7.57;4.83;;;;;;;;;;4950771;28;20538;-71
2022/06/05 00:15:11;;;;;;;8.93;5.03;;;;;;;;;;4947795;28;20438;-70
2022/06/05 00:17:37;;;;;;;4.73;4.20;;;;;;;;;;4946331;28;20482;-74
2022/06/05 00:20:04;;;;;;;9.00;4.93;;;;;;;;;;4945336;28;20445;-78
2022/06/05 00:22:30;;;;;;;4.83;4.70;;;;;;;;;;4949887;28;20438;-76
2022/06/05 00:24:56;;;;;;;4.73;4.47;;;;;;;;;;4948626;28;20497;-71
2022/06/05 00:27:34;;;;;;;5.23;4.97;;;;;;;;;;4948086;28;20521;-71
2022/06/05 00:30:13;;;;;;;6.43;5.00;;;;;;;;;;4948074;28;20485;-72
2022/06/05 00:32:44;;;;;;;6.10;5.60;;;;;;;;;;4961182;28;20480;-76
2022/06/05 00:35:14;;;;;;;5.43;5.13;;;;;;;;;;4948102;28;20970;-77
2022/06/05 00:37:49;;;;;;;5.30;4.80;;;;;;;;;;4948361;28;20434;-74
2022/06/05 00:40:31;;;;;;;5.50;5.20;;;;;;;;;;4945060;28;20526;-75
2022/06/05 00:42:58;;;;;;;5.03;4.80;;;;;;;;;;4948209;28;20927;-76
2022/06/05 00:45:27;;;;;;;5.87;5.20;;;;;;;;;;4948156;28;20461;-75
2022/06/05 00:47:52;;;;;;;5.80;5.40;;;;;;;;;;4949117;28;20474;-76
2022/06/05 00:50:20;;;;;;;4.93;4.70;;;;;;;;;;4948382;28;20550;-70
2022/06/05 00:52:48;;;;;;;4.60;4.40;;;;;;;;;;4947566;28;20493;-76
2022/06/05 00:55:14;;;;;;;5.37;4.97;;;;;;;;;;4947839;28;20435;-73
2022/06/05 00:57:40;;;;;;;5.00;4.67;;;;;;;;;;4947648;28;20816;-71
2022/06/05 01:00:33;;;;;;;6.37;5.90;;;;;;;;;;4948643;28;20857;-70
2022/06/05 01:02:59;;;;;;;5.70;5.40;;;;;;;;;;4946845;28;20491;-71
2022/06/05 01:05:26;;;;;;;5.53;5.13;;;;;;;;;;4947858;28;20454;-72
2022/06/05 01:07:53;;;;;;;6.70;6.13;;;;;;;;;;4950249;29;20442;-72
2022/06/05 01:10:21;;;;;;;6.13;5.77;;;;;;;;;;4945401;28;20458;-72
2022/06/05 01:13:05;;;;;;;6.23;5.93;;;;;;;;;;4948351;28;20474;-71
2022/06/05 01:15:41;;;;;;;6.10;5.67;;;;;;;;;;4950804;28;20438;-73
2022/06/05 01:18:26;;;;;;;5.60;5.40;;;;;;;;;;4952696;28;20446;-75
2022/06/05 01:21:07;;;;;;;5.33;5.13;;;;;;;;;;4949055;28;21859;-72
2022/06/05 01:23:36;;;;;;;4.90;4.70;;;;;;;;;;4950427;28;20426;-72
2022/06/05 01:26:08;;;;;;;4.87;4.63;;;;;;;;;;4949803;28;20526;-70
2022/06/05 01:28:37;;;;;;;10.23;5.97;;;;;;;;;;4949939;28;20441;-70
2022/06/05 01:31:13;;;;;;;5.77;5.27;;;;;;;;;;4964808;28;20450;-71
2022/06/05 01:33:41;;;;;;;5.73;5.40;;;;;;;;;;4966536;28;20648;-71
2022/06/05 01:36:09;;;;;;;5.77;4.80;;;;;;;;;;4949909;28;20438;-71
2022/06/05 01:38:45;;;;;;;5.23;4.97;;;;;;;;;;4951187;28;20442;-72
2022/06/05 01:41:14;;;;;;;6.00;5.33;;;;;;;;;;4950657;28;20470;-73
2022/06/05 01:43:43;;;;;;;6.00;5.60;;;;;;;;;;4949536;28;20439;-72
2022/06/05 01:46:13;;;;;;;5.70;5.30;;;;;;;;;;4952424;29;20470;-74
2022/06/05 01:48:41;;;;;;;5.80;5.13;;;;;;;;;;4949725;28;20446;-70
2022/06/05 01:51:10;;;;;;;6.47;4.90;;;;;;;;;;4951210;28;20643;-74
2022/06/05 01:53:36;;;;;;;9.83;5.23;;;;;;;;;;4964756;28;20501;-71
2022/06/05 01:56:11;;;;;;;5.80;5.40;;;;;;;;;;4950186;28;20439;-71
2022/06/05 01:58:39;;;;;;;4.93;4.63;;;;;;;;;;4948634;29;20443;-73
2022/06/05 02:01:09;;;;;;;5.70;5.30;;;;;;;;;;4965320;28;20447;-74
2022/06/05 02:03:41;;;;;;;4.23;4.13;;;;;;;;;;4949968;28;20434;-71
2022/06/05 02:06:12;;;;;;;9.80;4.20;;;;;;;;;;4946605;29;20451;-72
2022/06/05 02:08:42;;;;;;;4.00;3.90;;;;;;;;;;4951100;28;20431;-74
2022/06/05 02:11:11;;;;;;;3.40;3.20;;;;;;;;;;4950102;28;20445;-70
2022/06/05 02:13:37;;;;;;;4.10;4.00;;;;;;;;;;4950545;28;20534;-74
2022/06/05 02:16:03;;;;;;;4.77;4.60;;;;;;;;;;4965121;28;20450;-76
2022/06/05 02:18:29;;;;;;;4.17;3.97;;;;;;;;;;4950842;28;20453;-71
2022/06/05 02:20:55;;;;;;;4.90;4.50;;;;;;;;;;4951767;28;20443;-71
2022/06/05 02:23:24;;;;;;;12.60;4.07;;;;;;;;;;4963791;28;20455;-74
2022/06/05 02:25:50;;;;;;;6.57;5.10;;;;;;;;;;4952058;28;20434;-71
2022/06/05 02:28:18;;;;;;;5.77;5.40;;;;;;;;;;4952189;28;20947;-70
2022/06/05 02:30:47;;;;;;;5.73;5.20;;;;;;;;;;4948504;28;20434;-74
2022/06/05 02:33:22;;;;;;;3.97;3.77;;;;;;;;;;4950150;28;20487;-71
2022/06/05 02:36:00;;;;;;;5.30;5.10;;;;;;;;;;4949570;28;20450;-71
2022/06/05 02:38:48;;;;;;;2.80;2.70;;;;;;;;;;4951030;28;20474;-76
2022/06/05 02:41:19;;;;;;;4.70;4.40;;;;;;;;;;4950798;28;20457;-71
2022/06/05 02:43:45;;;;;;;4.83;4.63;;;;;;;;;;4951912;28;20442;-76
2022/06/05 02:46:33;;;;;;;5.53;5.03;;;;;;;;;;4950991;28;20470;-75
2022/06/05 02:49:21;;;;;;;4.77;4.60;;;;;;;;;;4950385;28;20449;-70
2022/06/05 02:51:47;;;;;;;4.47;4.37;;;;;;;;;;4949596;28;20435;-71
2022/06/05 02:54:21;;;;;;;6.97;4.87;;;;;;;;;;4948851;28;20487;-77
2022/06/05 02:56:47;;;;;;;10.97;4.00;;;;;;;;;;4963650;28;20435;-73
2022/06/05 02:59:13;;;;;;;4.70;4.43;;;;;;;;;;4948893;28;20442;-75
2022/06/05 03:04:23;;;;;;;5.70;5.30;;;;;;;;;;4945913;29;20465;-75
2022/06/05 03:06:49;;;;;;;4.87;4.60;;;;;;;;;;4946272;28;20856;-72
2022/06/05 03:09:16;;;;;;;7.50;5.70;;;;;;;;;;4948541;28;20790;-76
2022/06/05 03:11:42;;;;;;;6.03;5.80;;;;;;;;;;4951147;28;20438;-77
2022/06/05 03:14:08;;;;;;;5.60;5.40;;;;;;;;;;4949144;28;20502;-74
2022/06/05 03:16:35;;;;;;;10.83;4.70;;;;;;;;;;4949101;28;20438;-76
2022/06/05 03:19:01;;;;;;;5.73;5.33;;;;;;;;;;4948356;28;20458;-77
2022/06/05 03:21:30;;;;;;;6.47;5.80;;;;;;;;;;4964337;28;20466;-78
2022/06/05 03:23:56;;;;;;;6.27;5.73;;;;;;;;;;4950430;28;20805;-76
2022/06/05 03:26:22;;;;;;;6.40;5.80;;;;;;;;;;4951165;28;20469;-77
2022/06/05 03:28:48;;;;;;;7.20;6.23;;;;;;;;;;4949886;28;20466;-71
2022/06/05 03:31:14;;;;;;;5.00;4.13;;;;;;;;;;4950469;28;20458;-76
2022/06/05 03:33:40;;;;;;;4.50;4.20;;;;;;;;;;4950409;28;20488;-75
2022/06/05 03:36:10;;;;;;;7.47;6.23;;;;;;;;;;4951206;28;20434;-70
2022/06/05 03:38:36;;;;;;;3.70;3.60;;;;;;;;;;4950446;28;20525;-71
2022/06/05 03:41:03;;;;;;;6.10;5.83;;;;;;;;;;4948699;28;20430;-77
2022/06/05 03:43:29;;;;;;;6.57;5.97;;;;;;;;;;4948445;28;20446;-77
2022/06/05 03:46:02;;;;;;;7.93;5.30;;;;;;;;;;4948949;28;20442;-70
2022/06/05 03:48:27;;;;;;;4.67;4.27;;;;;;;;;;4950497;28;20514;-77
2022/06/05 03:50:53;;;;;;;7.43;6.70;;;;;;;;;;4949134;28;21011;-70
2022/06/05 03:53:19;;;;;;;6.97;6.60;;;;;;;;;;4964046;28;20820;-71
2022/06/05 03:55:45;;;;;;;6.40;6.00;;;;;;;;;;4948449;28;20455;-77
2022/06/05 03:58:11;;;;;;;6.00;5.57;;;;;;;;;;4950151;28;20444;-70
2022/06/05 04:00:37;;;;;;;6.47;6.07;;;;;;;;;;4950652;28;20427;-75
2022/06/05 04:03:03;;;;;;;10.40;6.67;;;;;;;;;;4948190;28;20439;-71
2022/06/05 04:05:29;;;;;;;6.93;6.43;;;;;;;;;;4946970;28;20521;-71
2022/06/05 04:07:55;;;;;;;13.20;6.90;;;;;;;;;;4948718;28;20525;-79
2022/06/05 04:10:21;;;;;;;6.23;5.87;;;;;;;;;;4949195;28;20522;-71
2022/06/05 04:12:48;;;;;;;7.80;5.60;;;;;;;;;;4949168;28;20478;-71
2022/06/05 04:15:14;;;;;;;6.67;6.37;;;;;;;;;;4949984;28;20530;-78
2022/06/05 04:17:40;;;;;;;6.53;5.93;;;;;;;;;;4950093;28;20431;-71
2022/06/05 04:20:07;;;;;;;5.90;5.60;;;;;;;;;;4949013;28;20502;-78
2022/06/05 04:22:36;;;;;;;9.40;6.40;;;;;;;;;;4946048;28;20446;-78
2022/06/05 04:25:04;;;;;;;6.07;5.40;;;;;;;;;;4950621;28;20460;-76
2022/06/05 04:27:30;;;;;;;10.80;5.77;;;;;;;;;;4950742;28;20911;-75
2022/06/05 04:29:58;;;;;;;5.73;5.53;;;;;;;;;;4948616;28;20582;-76
2022/06/05 04:32:24;;;;;;;6.40;4.90;;;;;;;;;;4950672;28;20478;-76
2022/06/05 04:34:51;;;;;;;6.73;6.10;;;;;;;;;;4949071;28;20958;-75
2022/06/05 04:37:17;;;;;;;9.37;7.03;;;;;;;;;;4951122;28;20427;-76
2022/06/05 04:39:43;;;;;;;7.63;6.93;;;;;;;;;;4948198;28;20461;-76
2022/06/05 04:42:09;;;;;;;8.43;5.73;;;;;;;;;;4944477;28;20431;-77
2022/06/05 04:44:35;;;;;;;6.87;6.57;;;;;;;;;;4949464;28;20482;-77
2022/06/05 04:47:01;;;;;;;6.77;6.33;;;;;;;;;;4952018;28;20502;-77
2022/06/05 04:49:27;;;;;;;6.13;5.80;;;;;;;;;;4953041;28;20654;-77
2022/06/05 04:51:53;;;;;;;6.33;5.93;;;;;;;;;;4955087;28;20458;-77
2022/06/05 04:54:19;;;;;;;7.27;6.20;;;;;;;;;;4954357;28;20904;-76
2022/06/05 04:56:46;;;;;;;7.37;6.90;;;;;;;;;;4954107;28;20800;-78
2022/06/05 04:59:13;;;;;;;6.80;6.30;;;;;;;;;;4965788;28;20450;-77
2022/06/05 05:01:39;;;;;;;6.27;5.87;;;;;;;;;;4953544;28;20425;-77
2022/06/05 05:04:12;;;;;;;9.03;5.30;;;;;;;;;;4968425;28;20438;-77
2022/06/05 05:06:39;;;;;;;6.00;5.70;;;;;;;;;;4952374;28;20513;-72
2022/06/05 05:09:05;;;;;;;6.60;6.30;;;;;;;;;;4952437;28;20939;-76
2022/06/05 05:11:31;;;;;;;7.00;6.50;;;;;;;;;;4954370;28;20434;-77
2022/06/05 05:13:58;;;;;;;8.03;5.37;;;;;;;;;;4953378;28;20585;-76
2022/06/05 05:16:25;;;;;;;11.47;5.70;;;;;;;;;;4953298;28;20423;-71
2022/06/05 05:18:51;;;;;;;5.87;5.67;;;;;;;;;;4954151;28;20903;-77
2022/06/05 05:21:18;;;;;;;5.60;5.20;;;;;;;;;;4954038;28;20837;-77
2022/06/05 05:23:45;;;;;;;5.67;5.50;;;;;;;;;;4952256;28;20954;-75
2022/06/05 05:26:21;;;;;;;4.57;4.37;;;;;;;;;;4953211;28;20434;-77
2022/06/05 05:28:48;;;;;;;5.43;5.03;;;;;;;;;;4954023;28;20438;-77
2022/06/05 05:31:17;;;;;;;6.27;5.87;;;;;;;;;;4953815;28;20478;-71
2022/06/05 05:33:43;;;;;;;5.00;4.80;;;;;;;;;;4950102;28;20581;-75
2022/06/05 05:36:09;;;;;;;5.27;5.17;;;;;;;;;;4950214;28;20440;-78
2022/06/05 05:38:36;;;;;;;6.43;5.90;;;;;;;;;;4954400;28;20496;-77
2022/06/05 05:43:47;;;;;;;9.03;6.67;;;;;;;;;;4952132;28;20461;-77
2022/06/05 05:46:13;;;;;;;5.67;5.37;;;;;;;;;;4950726;28;21014;-77
2022/06/05 05:48:40;;;;;;;7.17;6.77;;;;;;;;;;4951431;28;20482;-77
2022/06/05 05:51:15;;;;;;;6.93;6.10;;;;;;;;;;4951061;28;20449;-74
2022/06/05 05:53:42;;;;;;;6.30;5.90;;;;;;;;;;4951409;28;21014;-76
2022/06/05 05:56:09;;;;;;;6.77;6.20;;;;;;;;;;4949100;28;20511;-77
2022/06/05 05:58:35;;;;;;;6.03;5.73;;;;;;;;;;4951036;28;20962;-77
2022/06/05 06:01:06;;;;;;;6.93;6.37;;;;;;;;;;4948943;28;20431;-76
2022/06/05 06:03:32;;;;;;;6.60;6.20;;;;;;;;;;4950320;28;20447;-77
2022/06/05 06:05:59;;;;;;;6.27;5.97;;;;;;;;;;4947775;28;20911;-74
2022/06/05 06:08:25;;;;;;;10.20;7.40;;;;;;;;;;4935679;28;20534;-75
2022/06/05 06:10:51;;;;;;;9.43;6.57;;;;;;;;;;4966304;28;20930;-77
2022/06/05 06:13:17;;;;;;;6.57;6.00;;;;;;;;;;4946217;28;20606;-77
2022/06/05 06:15:43;;;;;;;9.07;6.50;;;;;;;;;;4953134;28;20521;-77
2022/06/05 06:18:09;;;;;;;7.27;6.60;;;;;;;;;;4950899;28;20562;-77
2022/06/05 06:20:35;;;;;;;6.70;6.33;;;;;;;;;;4950376;28;20954;-77
2022/06/05 06:23:01;;;;;;;9.50;7.10;;;;;;;;;;4949044;28;20426;-75
2022/06/05 06:25:27;;;;;;;7.57;6.87;;;;;;;;;;4951826;28;20437;-73
2022/06/05 06:27:53;;;;;;;7.40;6.78;;;;;;;;;;4951440;28;20363;-76
2022/06/05 06:30:19;;;;;;;7.73;7.23;;;;;;;;;;4949130;28;20576;-77
2022/06/05 06:32:45;;;;;;;8.57;7.70;;;;;;;;;;4951283;28;20501;-77
2022/06/05 06:35:11;;;;;;;8.07;7.37;;;;;;;;;;4948646;28;21010;-77
2022/06/05 06:37:37;;;;;;;8.30;7.70;;;;;;;;;;4965779;28;20453;-74
2022/06/05 06:40:04;;;;;;;8.97;8.33;;;;;;;;;;4949260;28;20447;-78
2022/06/05 06:42:30;;;;;;;8.00;7.50;;;;;;;;;;4951616;28;20945;-78
2022/06/05 06:44:56;;;;;;;7.33;6.83;;;;;;;;;;4963326;28;20539;-78
2022/06/05 06:47:22;;;;;;;8.03;7.23;;;;;;;;;;4951055;28;20971;-77
2022/06/05 06:49:48;;;;;;;12.70;7.90;;;;;;;;;;4951408;28;20495;-77
2022/06/05 06:52:14;;;;;;;12.30;7.20;;;;;;;;;;4947070;29;20431;-74
2022/06/05 06:54:40;;;;;;;9.40;8.63;;;;;;;;;;4951602;28;20490;-78
2022/06/05 06:57:07;;;;;;;11.87;7.23;;;;;;;;;;4951184;28;20435;-74
2022/06/05 06:59:33;;;;;;;7.70;7.13;;;;;;;;;;4951765;28;20533;-74
2022/06/05 07:01:59;;;;;;;9.70;8.60;;;;;;;;;;4948113;28;20987;-71
2022/06/05 07:04:25;;;;;;;8.53;7.77;;;;;;;;;;4948443;28;20431;-75
2022/06/05 07:06:51;;;;;;;9.90;8.27;;;;;;;;;;4949754;28;20478;-74
2022/06/05 07:09:17;;;;;;;10.37;8.37;;;;;;;;;;4951145;28;21235;-73
2022/06/05 07:11:43;;;;;;;9.50;8.80;;;;;;;;;;4950720;28;20419;-73
2022/06/05 07:14:09;;;;;;;8.47;7.93;;;;;;;;;;4951719;28;20529;-74
2022/06/05 07:16:36;;;;;;;6.40;6.10;;;;;;;;;;4949130;28;20446;-74
2022/06/05 07:19:02;;;;;;;9.70;8.90;;;;;;;;;;4965661;28;20502;-75
2022/06/05 07:21:28;;;;;;;8.80;8.17;;;;;;;;;;4949472;28;20428;-77
2022/06/05 07:23:55;;;;;;;12.33;8.70;;;;;;;;;;4950326;28;20443;-77
2022/06/05 07:26:22;;;;;;;9.30;8.57;;;;;;;;;;4961759;28;20427;-75
2022/06/05 07:28:49;;;;;;;8.90;8.40;;;;;;;;;;4949436;28;20450;-77
2022/06/05 07:31:16;;;;;;;10.50;9.60;;;;;;;;;;4961612;28;20770;-73
2022/06/05 07:33:42;;;;;;;9.90;9.20;;;;;;;;;;4949929;28;20491;-76
2022/06/05 07:36:09;;;;;;;10.47;9.60;;;;;;;;;;4950168;28;20424;-71
2022/06/05 07:38:36;;;;;;;8.67;7.87;;;;;;;;;;4945653;28;20447;-65
2022/06/05 07:41:02;;;;;;;9.97;9.27;;;;;;;;;;4950262;28;20537;-70
2022/06/05 07:43:28;;;;;;;9.30;8.60;;;;;;;;;;4951626;28;20582;-72
2022/06/05 07:45:56;;;;;;;9.40;8.60;;;;;;;;;;4964569;28;20863;-75
2022/06/05 07:48:22;;;;;;;8.90;8.20;;;;;;;;;;4951339;28;20522;-72
2022/06/05 07:56:19;;;;;;;7.57;7.00;;;;;;;;;;4941229;29;20844;-75
2022/06/05 07:58:45;;;;;;;9.00;8.40;;;;;;;;;;4950125;28;20422;-76
2022/06/05 08:01:11;;;;;;;8.57;8.07;;;;;;;;;;4947965;28;20459;-73
2022/06/05 08:03:37;;;;;;;8.53;7.80;;;;;;;;;;4942985;28;20439;-74
2022/06/05 08:06:03;;;;;;;11.00;9.97;;;;;;;;;;4950210;28;20439;-71
2022/06/05 08:08:29;;;;;;;9.63;9.00;;;;;;;;;;4951027;28;20466;-76
2022/06/05 08:11:01;;;;;;;12.13;9.53;;;;;;;;;;4949596;28;20934;-73
2022/06/05 08:13:27;;;;;;;9.53;8.93;;;;;;;;;;4948593;28;20478;-73
2022/06/05 08:15:53;;;;;;;10.07;9.43;;;;;;;;;;4948022;28;20438;-72
2022/06/05 08:18:19;;;;;;;10.63;9.67;;;;;;;;;;4949728;28;20807;-73
2022/06/05 08:20:45;;;;;;;11.60;10.03;;;;;;;;;;4950520;28;20434;-72
2022/06/05 08:23:11;;;;;;;12.33;10.40;;;;;;;;;;4955535;28;20934;-78
2022/06/05 08:25:37;;;;;;;9.30;8.60;;;;;;;;;;4955894;28;20433;-74
2022/06/05 08:28:03;;;;;;;11.73;8.40;;;;;;;;;;4956266;28;20411;-74
2022/06/05 08:30:29;;;;;;;8.43;7.63;;;;;;;;;;4957429;28;20461;-75
2022/06/05 08:32:55;;;;;;;8.23;7.23;;;;;;;;;;4957073;28;20859;-72
2022/06/05 08:35:21;;;;;;;7.97;7.33;;;;;;;;;;4955871;28;20820;-75
2022/06/05 08:43:37;;;;;;;7.10;6.50;;;;;;;;;;4956134;28;20520;-72
2022/06/05 08:46:10;;;;;;;6.77;6.37;;;;;;;;;;4957394;28;20563;-71
2022/06/05 08:48:59;;;;;;;5.90;5.60;;;;;;;;;;4956905;28;20503;-72
2022/06/05 08:51:31;;;;;;;5.90;5.40;;;;;;;;;;4954473;28;20486;-71
2022/06/05 08:54:01;;;;;;;6.63;6.00;;;;;;;;;;4956394;28;20501;-75
2022/06/05 08:56:38;;;;;;;4.93;4.23;;;;;;;;;;4971552;28;20443;-73
2022/06/05 08:59:16;;;;;;;5.77;5.20;;;;;;;;;;4955446;28;20434;-73
2022/06/05 09:02:03;;;;;;;6.63;5.80;;;;;;;;;;4957202;28;20473;-70
2022/06/05 09:04:47;;;;;;;5.90;5.40;;;;;;;;;;4955293;28;20529;-75
2022/06/05 09:07:18;;;;;;;5.03;4.57;;;;;;;;;;4954719;28;20517;-72
2022/06/05 09:09:48;;;;;;;13.63;5.30;;;;;;;;;;4972307;28;20861;-73
2022/06/05 09:12:21;;;;;;;8.23;6.80;;;;;;;;;;4957242;28;20761;-77
2022/06/05 09:14:55;;;;;;;9.90;6.00;;;;;;;;;;4951158;28;20450;-77
2022/06/05 09:17:21;;;;;;;6.30;5.70;;;;;;;;;;4955723;28;20434;-70
2022/06/05 09:19:49;;;;;;;8.40;5.30;;;;;;;;;;4951164;28;20915;-72
2022/06/05 09:22:15;;;;;;;8.47;7.77;;;;;;;;;;4957308;28;20458;-74
2022/06/05 09:24:53;;;;;;;6.67;6.20;;;;;;;;;;4969684;28;20434;-76
2022/06/05 09:27:34;;;;;;;7.90;7.30;;;;;;;;;;4954861;28;20450;-77
2022/06/05 09:30:03;;;;;;;7.50;6.90;;;;;;;;;;4956828;28;20422;-77
2022/06/05 09:32:32;;;;;;;9.37;8.47;;;;;;;;;;4955548;28;20923;-75
2022/06/05 09:35:06;;;;;;;6.90;6.30;;;;;;;;;;4950633;28;20451;-71
2022/06/05 09:38:01;;;;;;;6.80;6.10;;;;;;;;;;4952334;28;20437;-75
2022/06/05 09:40:29;;;;;;;6.03;5.60;;;;;;;;;;4948217;28;20875;-76
2022/06/05 09:43:14;;;;;;;9.43;6.03;;;;;;;;;;4952395;28;20427;-78
2022/06/05 09:45:49;;;;;;;6.13;5.53;;;;;;;;;;4966972;28;20442;-71
2022/06/05 09:48:30;;;;;;;5.60;4.73;;;;;;;;;;4950871;28;20454;-77
2022/06/05 09:50:57;;;;;;;7.40;5.67;;;;;;;;;;4953604;28;20423;-77
2022/06/05 09:53:27;;;;;;;3.60;3.40;;;;;;;;;;4949506;28;20494;-76
2022/06/05 09:56:12;;;;;;;3.83;3.60;;;;;;;;;;4951633;28;20443;-73
2022/06/05 09:58:41;;;;;;;2.10;2.00;;;;;;;;;;4948060;28;20537;-75
2022/06/05 10:01:20;;;;;;;2.00;1.90;;;;;;;;;;4952631;28;20423;-75
2022/06/05 10:03:47;;;;;;;2.30;2.20;;;;;;;;;;4951253;28;20442;-71
2022/06/05 10:06:22;;;;;;;3.03;2.83;;;;;;;;;;4951995;28;20435;-75
2022/06/05 10:08:54;;;;;;;2.20;2.10;;;;;;;;;;4968738;28;20453;-75
2022/06/05 10:11:26;;;;;;;4.20;2.63;;;;;;;;;;4953313;28;20445;-76
2022/06/05 10:13:57;;;;;;;3.83;3.13;;;;;;;;;;4950256;28;20520;-73
2022/06/05 10:16:31;;;;;;;2.93;2.50;;;;;;;;;;4953105;28;20993;-71
2022/06/05 10:19:17;;;;;;;4.57;2.50;;;;;;;;;;4952133;28;20472;-71
2022/06/05 10:21:50;;;;;;;2.47;2.47;;;;;;;;;;4953528;28;20427;-74
2022/06/05 10:24:34;;;;;;;1.90;1.20;;;;;;;;;;4951676;28;20935;-71
2022/06/05 10:27:02;;;;;;;6.00;0.93;;;;;;;;;;4951422;28;20446;-75
2022/06/05 10:29:28;;;;;;;0.97;0.97;;;;;;;;;;4953528;28;20431;-75
2022/06/05 10:32:06;;;;;;;1.33;1.10;;;;;;;;;;4951405;28;20946;-70
2022/06/05 10:34:34;;;;;;;2.43;1.00;;;;;;;;;;4952284;28;20556;-74
2022/06/05 10:37:19;;;;;;;2.33;0.83;;;;;;;;;;4951953;28;20439;-76
2022/06/05 10:39:50;;;;;;;1.17;0.87;;;;;;;;;;4953358;28;20431;-72
2022/06/05 10:42:16;;;;;;;0.80;0.80;;;;;;;;;;4965196;28;20489;-75
2022/06/05 10:45:07;;;;;;;1.17;0.57;;;;;;;;;;4950231;28;20438;-75
2022/06/05 10:47:53;;;;;;;1.33;0.77;;;;;;;;;;4952827;28;20550;-70
2022/06/05 10:50:25;;;;;;;2.03;0.80;;;;;;;;;;4951804;28;20513;-75
2022/06/05 10:52:57;;;;;;;0.70;0.50;;;;;;;;;;4951756;28;20470;-75
2022/06/05 10:55:43;;;;;;;7.87;0.70;;;;;;;;;;4950828;28;20439;-74
2022/06/05 10:58:21;;;;;;;1.37;0.50;;;;;;;;;;4950358;28;20432;-71
2022/06/05 11:00:50;;;;;;;1.50;0.90;;;;;;;;;;4951500;28;20438;-71
2022/06/05 11:03:28;;;;;;;0.80;0.73;;;;;;;;;;4948920;29;20521;-75
2022/06/05 11:06:06;;;;;;;0.60;0.60;;;;;;;;;;4951568;28;20462;-72
2022/06/05 11:08:38;;;;;;;1.10;1.00;;;;;;;;;;4949892;29;20447;-75
2022/06/05 11:14:21;;;;;;;0.80;0.80;;;;;;;;;;4950299;28;20525;-70
2022/06/05 11:16:56;;;;;;;0.60;0.60;;;;;;;;;;4952239;28;20495;-71
2022/06/05 11:19:22;;;;;;;1.07;0.70;;;;;;;;;;4952598;28;20497;-74
2022/06/05 11:21:49;;;;;;;0.80;0.80;;;;;;;;;;4948888;28;20840;-75
2022/06/05 11:24:23;;;;;;;1.13;0.70;;;;;;;;;;4951285;28;20435;-74
2022/06/05 11:27:03;;;;;;;0.97;0.97;;;;;;;;;;4949350;28;20966;-71
2022/06/05 11:29:43;;;;;;;2.30;1.00;;;;;;;;;;4950048;28;20811;-73
2022/06/05 11:32:16;;;;;;;1.67;0.80;;;;;;;;;;4949267;28;20438;-74
2022/06/05 11:35:00;;;;;;;0.60;0.60;;;;;;;;;;4952136;28;20482;-73
2022/06/05 11:37:34;;;;;;;1.10;0.83;;;;;;;;;;4948901;29;20905;-75
2022/06/05 11:40:20;;;;;;;3.20;1.10;;;;;;;;;;4952203;28;20841;-75
2022/06/05 11:43:19;;;;;;;0.80;0.80;;;;;;;;;;4956318;28;20805;-73
2022/06/05 11:45:45;;;;;;;7.20;0.63;;;;;;;;;;4960858;28;20442;-70
2022/06/05 11:48:20;;;;;;;0.90;0.90;;;;;;;;;;4947972;28;20959;-74
2022/06/05 11:51:01;;;;;;;1.00;1.00;;;;;;;;;;4949818;28;21091;-72
2022/06/05 11:53:39;;;;;;;0.60;0.60;;;;;;;;;;4945060;28;20486;-74
2022/06/05 11:56:15;;;;;;;1.50;0.60;;;;;;;;;;4943739;28;20438;-76
2022/06/05 11:58:46;;;;;;;4.00;0.73;;;;;;;;;;4950681;28;20466;-74
2022/06/05 12:01:15;;;;;;;0.90;0.90;;;;;;;;;;4951307;28;20447;-75
2022/06/05 12:03:46;;;;;;;2.30;1.07;;;;;;;;;;4949068;28;20450;-74
2022/06/05 12:06:25;;;;;;;0.73;0.50;;;;;;;;;;4945422;28;20454;-74
2022/06/05 12:08:52;;;;;;;0.60;0.60;;;;;;;;;;4944741;28;20434;-75
2022/06/05 12:11:24;;;;;;;1.07;1.07;;;;;;;;;;4949582;28;20447;-70
2022/06/05 12:13:50;;;;;;;1.60;0.77;;;;;;;;;;4949277;28;20501;-74
2022/06/05 12:16:16;;;;;;;0.90;0.90;;;;;;;;;;4948326;28;20927;-77
2022/06/05 12:18:54;;;;;;;3.27;1.27;;;;;;;;;;4950751;28;20660;-69
2022/06/05 12:21:23;;;;;;;0.90;0.90;;;;;;;;;;4951365;28;20443;-74
2022/06/05 12:23:54;;;;;;;0.87;0.87;;;;;;;;;;4948931;28;20946;-76
2022/06/05 12:26:27;;;;;;;0.90;0.90;;;;;;;;;;4948899;28;20455;-74
2022/06/05 12:28:59;;;;;;;0.70;0.67;;;;;;;;;;4948438;28;20441;-74
2022/06/05 12:31:31;;;;;;;1.90;0.70;;;;;;;;;;4951680;28;20415;-71
2022/06/05 12:34:12;;;;;;;1.00;1.00;;;;;;;;;;4948299;28;20486;-75
2022/06/05 12:36:41;;;;;;;1.50;1.27;;;;;;;;;;4948302;28;20503;-71
2022/06/05 12:39:16;;;;;;;3.73;1.33;;;;;;;;;;4942650;29;20463;-74
2022/06/05 12:41:55;;;;;;;2.83;1.43;;;;;;;;;;4931895;28;20457;-73
2022/06/05 12:44:28;;;;;;;2.83;0.60;;;;;;;;;;4948208;28;20437;-74
2022/06/05 12:47:06;;;;;;;0.93;0.90;;;;;;;;;;4957117;28;20494;-73
2022/06/05 12:49:32;;;;;;;0.60;0.60;;;;;;;;;;4966015;28;20431;-75
2022/06/05 12:52:09;;;;;;;1.03;1.03;;;;;;;;;;4948876;28;21026;-74
2022/06/05 12:54:41;;;;;;;4.10;0.70;;;;;;;;;;4948715;28;21002;-71
2022/06/05 12:57:09;;;;;;;0.87;0.87;;;;;;;;;;4941426;28;20435;-73
2022/06/05 12:59:41;;;;;;;6.93;0.70;;;;;;;;;;4944391;28;20506;-71
2022/06/05 13:02:21;;;;;;;0.90;0.90;;;;;;;;;;4943410;28;20434;-72
2022/06/05 13:04:52;;;;;;;0.87;0.87;;;;;;;;;;4945453;28;20449;-74
2022/06/05 13:07:22;;;;;;;1.10;1.10;;;;;;;;;;4944884;28;20956;-74
2022/06/05 13:09:52;;;;;;;0.90;0.90;;;;;;;;;;4948175;29;20442;-71
2022/06/05 13:12:24;;;;;;;0.60;0.60;;;;;;;;;;4945975;28;21189;-74
2022/06/05 13:15:01;;;;;;;0.70;0.70;;;;;;;;;;4952376;28;20947;-71
2022/06/05 13:17:46;;;;;;;0.90;0.90;;;;;;;;;;4950356;28;20434;-75
2022/06/05 13:20:20;;;;;;;0.73;0.73;;;;;;;;;;4953810;28;20613;-73
2022/06/05 13:22:49;;;;;;;0.50;0.50;;;;;;;;;;4946880;28;20430;-73
2022/06/05 13:25:21;;;;;;;1.07;0.60;;;;;;;;;;4952660;28;21011;-72
2022/06/05 13:28:02;;;;;;;1.40;1.20;;;;;;;;;;4951416;28;20426;-75
2022/06/05 13:30:29;;;;;;;1.10;0.70;;;;;;;;;;4949483;28;20434;-74
2022/06/05 13:33:01;;;;;;;0.70;0.70;;;;;;;;;;4950604;28;20525;-71
2022/06/05 13:35:30;;;;;;;0.97;0.97;;;;;;;;;;4951894;28;20435;-75
2022/06/05 13:38:07;;;;;;;0.60;0.60;;;;;;;;;;4966500;28;20427;-75
2022/06/05 13:40:33;;;;;;;0.77;0.77;;;;;;;;;;4951956;28;20435;-74
2022/06/05 13:43:01;;;;;;;3.50;0.50;;;;;;;;;;4952769;28;20428;-74
2022/06/05 13:45:36;;;;;;;0.90;0.90;;;;;;;;;;4966949;28;20442;-70
2022/06/05 13:48:08;;;;;;;0.90;0.90;;;;;;;;;;4953965;28;20466;-75
2022/06/05 13:50:38;;;;;;;1.17;0.83;;;;;;;;;;4953038;28;20440;-74
2022/06/05 13:53:07;;;;;;;2.57;0.90;;;;;;;;;;4950440;28;20486;-75
2022/06/05 13:55:33;;;;;;;0.80;0.80;;;;;;;;;;4960624;28;20486;-74
2022/06/05 13:58:05;;;;;;;1.43;0.90;;;;;;;;;;4967366;28;20847;-72
2022/06/05 14:00:33;;;;;;;1.10;1.10;;;;;;;;;;4963214;28;20263;-75
2022/06/05 14:03:07;;;;;;;0.60;0.60;;;;;;;;;;4967411;28;20787;-71
2022/06/05 14:05:36;;;;;;;0.70;0.70;;;;;;;;;;4950727;28;20450;-74
2022/06/05 14:08:08;;;;;;;0.87;0.67;;;;;;;;;;4951251;28;20451;-73
2022/06/05 14:10:48;;;;;;;0.63;0.63;;;;;;;;;;4952249;28;20430;-73
2022/06/05 14:13:15;;;;;;;1.60;0.80;;;;;;;;;;4951114;28;20522;-74
2022/06/05 14:15:43;;;;;;;1.33;0.83;;;;;;;;;;4946607;28;20439;-75
2022/06/05 14:18:28;;;;;;;0.70;0.70;;;;;;;;;;4949478;28;20443;-74
2022/06/05 14:20:58;;;;;;;1.17;0.63;;;;;;;;;;4952436;28;20510;-74
2022/06/05 14:23:25;;;;;;;0.70;0.70;;;;;;;;;;4950791;28;20539;-75
2022/06/05 14:25:51;;;;;;;1.80;0.90;;;;;;;;;;4951581;28;20434;-74
2022/06/05 14:28:19;;;;;;;0.60;0.60;;;;;;;;;;4964981;28;20964;-72
2022/06/05 14:31:03;;;;;;;3.97;0.97;;;;;;;;;;4945641;28;20541;-74
2022/06/05 14:33:31;;;;;;;0.67;0.67;;;;;;;;;;4951738;28;20474;-73
2022/06/05 14:35:57;;;;;;;0.50;0.50;;;;;;;;;;4964436;28;20442;-74
2022/06/05 14:38:36;;;;;;;0.70;0.70;;;;;;;;;;4949876;28;20434;-74
2022/06/05 14:41:10;;;;;;;1.70;0.77;;;;;;;;;;4948894;28;20533;-74
2022/06/05 14:43:46;;;;;;;3.97;0.60;;;;;;;;;;4965790;28;20865;-73
2022/06/05 14:46:27;;;;;;;11.43;2.03;;;;;;;;;;4949985;28;20851;-72
2022/06/05 14:48:57;;;;;;;4.20;1.30;;;;;;;;;;4967508;28;20951;-74
2022/06/05 14:51:23;;;;;;;4.57;1.33;;;;;;;;;;4952127;28;20486;-73
2022/06/05 14:53:58;;;;;;;16.93;3.43;;;;;;;;;;4949024;28;20495;-73
2022/06/05 14:59:19;;;;;;;2.13;1.70;;;;;;;;;;4952971;28;20414;-74
2022/06/05 15:01:49;;;;;;;5.70;1.37;;;;;;;;;;4963361;28;20438;-73
2022/06/05 15:04:24;;;;;;;8.87;1.87;;;;;;;;;;4949310;28;20443;-74
2022/06/05 15:06:55;;;;;;;4.20;2.03;;;;;;;;;;4948582;28;20446;-73
2022/06/05 15:09:25;;;;;;;3.10;1.37;;;;;;;;;;4951884;28;20430;-75
2022/06/05 15:12:01;;;;;;;2.53;1.40;;;;;;;;;;4963890;28;20450;-74
2022/06/05 15:14:27;;;;;;;2.10;1.30;;;;;;;;;;4950080;28;20854;-73
2022/06/05 15:16:59;;;;;;;1.97;1.17;;;;;;;;;;4947051;28;20430;-74
2022/06/05 15:19:29;;;;;;;5.50;3.00;;;;;;;;;;4950383;28;20442;-72
2022/06/05 15:21:55;;;;;;;1.20;1.20;;;;;;;;;;4966120;28;20434;-77
2022/06/05 15:24:26;;;;;;;0.97;0.87;;;;;;;;;;4963488;28;20979;-70